sensor_id;sensor_type;location;lat;lon;timestamp;pressure;altitude;pressure_sealevel;temperature;humidity
74346;BME280;62776;50.518;6.732;2023-05-23T00:00:14;96688.09;;;14.50;100.00
74346;BME280;62776;50.518;6.732;2023-05-23T00:03:04;96685.66;;;14.44;100.00
74346;BME280;62776;50.518;6.732;2023-05-23T00:05:50;96690.91;;;14.43;100.00
74346;BME280;62776;50.518;6.732;2023-05-23T00:08:42;96690.03;;;14.42;100.00
74346;BME280;62776;50.518;6.732;2023-05-23T00:11:30;96691.75;;;14.45;100.00
74346;BME280;62776;50.518;6.732;2023-05-23T00:14:17;96691.66;;;14.48;100.00
74346;BME280;62776;50.518;6.732;2023-05-23T00:17:04;96697.72;;;14.50;100.00
74346;BME280;62776;50.518;6.732;2023-05-23T00:19:52;96699.34;;;14.55;100.00
74346;BME280;62776;50.518;6.732;2023-05-23T00:22:40;96707.00;;;14.63;100.00
74346;BME280;62776;50.518;6.732;2023-05-23T00:25:29;96700.78;;;14.67;100.00
74346;BME280;62776;50.518;6.732;2023-05-23T00:28:24;96701.56;;;14.72;100.00
74346;BME280;62776;50.518;6.732;2023-05-23T00:31:12;96707.72;;;14.69;100.00
74346;BME280;62776;50.518;6.732;2023-05-23T00:34:00;96705.78;;;14.77;100.00
74346;BME280;62776;50.518;6.732;2023-05-23T00:36:47;96697.84;;;14.81;100.00
74346;BME280;62776;50.518;6.732;2023-05-23T00:39:35;96706.38;;;14.89;100.00
74346;BME280;62776;50.518;6.732;2023-05-23T00:42:22;96702.84;;;14.90;100.00
74346;BME280;62776;50.518;6.732;2023-05-23T00:45:11;96703.94;;;14.81;100.00
74346;BME280;62776;50.518;6.732;2023-05-23T00:48:00;96703.06;;;14.81;100.00
74346;BME280;62776;50.518;6.732;2023-05-23T00:50:47;96702.22;;;14.80;100.00
74346;BME280;62776;50.518;6.732;2023-05-23T00:53:34;96704.81;;;14.82;100.00
74346;BME280;62776;50.518;6.732;2023-05-23T00:56:22;96697.69;;;14.87;100.00
74346;BME280;62776;50.518;6.732;2023-05-23T00:59:12;96710.75;;;14.88;100.00
74346;BME280;62776;50.518;6.732;2023-05-23T01:02:00;96699.34;;;14.91;100.00
74346;BME280;62776;50.518;6.732;2023-05-23T01:04:53;96702.09;;;14.49;100.00
74346;BME280;62776;50.518;6.732;2023-05-23T01:07:41;96701.44;;;14.76;100.00
74346;BME280;62776;50.518;6.732;2023-05-23T01:10:29;96703.06;;;14.81;100.00
74346;BME280;62776;50.518;6.732;2023-05-23T01:13:46;96705.19;;;14.66;100.00
74346;BME280;62776;50.518;6.732;2023-05-23T01:16:46;96690.03;;;14.79;100.00
74346;BME280;62776;50.518;6.732;2023-05-23T01:20:33;96693.78;;;14.69;100.00
74346;BME280;62776;50.518;6.732;2023-05-23T01:26:00;96688.75;;;14.60;100.00
74346;BME280;62776;50.518;6.732;2023-05-23T01:28:58;96687.97;;;14.56;100.00
74346;BME280;62776;50.518;6.732;2023-05-23T01:31:53;96681.72;;;14.63;100.00
74346;BME280;62776;50.518;6.732;2023-05-23T01:34:41;96682.53;;;14.65;100.00
74346;BME280;62776;50.518;6.732;2023-05-23T01:37:33;96678.09;;;14.69;100.00
74346;BME280;62776;50.518;6.732;2023-05-23T01:40:23;96683.41;;;14.64;100.00
74346;BME280;62776;50.518;6.732;2023-05-23T01:43:22;96685.09;;;14.67;100.00
74346;BME280;62776;50.518;6.732;2023-05-23T01:46:10;96681.63;;;14.66;100.00
74346;BME280;62776;50.518;6.732;2023-05-23T01:48:57;96677.34;;;14.62;100.00
74346;BME280;62776;50.518;6.732;2023-05-23T01:51:45;96688.09;;;14.52;100.00
74346;BME280;62776;50.518;6.732;2023-05-23T01:54:33;96681.09;;;14.52;100.00
74346;BME280;62776;50.518;6.732;2023-05-23T01:57:21;96687.19;;;14.53;100.00
74346;BME280;62776;50.518;6.732;2023-05-23T02:00:09;96691.50;;;14.54;100.00
74346;BME280;62776;50.518;6.732;2023-05-23T02:02:57;96693.25;;;14.53;100.00
74346;BME280;62776;50.518;6.732;2023-05-23T02:05:46;96692.44;;;14.51;100.00
74346;BME280;62776;50.518;6.732;2023-05-23T02:08:32;96695.88;;;14.53;100.00
74346;BME280;62776;50.518;6.732;2023-05-23T02:11:19;96702.06;;;14.51;100.00
74346;BME280;62776;50.518;6.732;2023-05-23T02:14:08;96692.56;;;14.47;100.00
74346;BME280;62776;50.518;6.732;2023-05-23T02:16:54;96696.06;;;14.47;100.00
74346;BME280;62776;50.518;6.732;2023-05-23T02:19:41;96703.09;;;14.44;100.00
74346;BME280;62776;50.518;6.732;2023-05-23T02:22:31;96704.91;;;14.42;100.00
74346;BME280;62776;50.518;6.732;2023-05-23T02:25:17;96699.72;;;14.39;100.00
74346;BME280;62776;50.518;6.732;2023-05-23T02:28:11;96702.44;;;14.34;100.00
74346;BME280;62776;50.518;6.732;2023-05-23T02:31:00;96706.00;;;14.30;100.00
74346;BME280;62776;50.518;6.732;2023-05-23T02:33:47;96710.47;;;14.25;100.00
74346;BME280;62776;50.518;6.732;2023-05-23T02:36:34;96708.78;;;14.23;100.00
74346;BME280;62776;50.518;6.732;2023-05-23T02:39:24;96720.19;;;14.20;100.00
74346;BME280;62776;50.518;6.732;2023-05-23T02:42:12;96715.84;;;14.19;100.00
74346;BME280;62776;50.518;6.732;2023-05-23T02:44:58;96723.69;;;14.17;100.00
74346;BME280;62776;50.518;6.732;2023-05-23T02:47:48;96724.53;;;14.19;100.00
74346;BME280;62776;50.518;6.732;2023-05-23T02:50:34;96722.78;;;14.20;100.00
74346;BME280;62776;50.518;6.732;2023-05-23T02:53:24;96724.56;;;14.18;100.00
74346;BME280;62776;50.518;6.732;2023-05-23T02:56:12;96724.72;;;14.10;100.00
74346;BME280;62776;50.518;6.732;2023-05-23T02:58:58;96723.81;;;14.13;100.00
74346;BME280;62776;50.518;6.732;2023-05-23T03:01:44;96733.50;;;14.06;100.00
74346;BME280;62776;50.518;6.732;2023-05-23T03:04:32;96722.47;;;13.94;100.00
74346;BME280;62776;50.518;6.732;2023-05-23T03:07:19;96718.91;;;13.98;100.00
74346;BME280;62776;50.518;6.732;2023-05-23T03:10:09;96720.72;;;13.93;100.00
74346;BME280;62776;50.518;6.732;2023-05-23T03:12:57;96725.97;;;13.93;100.00
74346;BME280;62776;50.518;6.732;2023-05-23T03:15:43;96739.13;;;13.90;100.00
74346;BME280;62776;50.518;6.732;2023-05-23T03:18:32;96740.91;;;13.86;100.00
74346;BME280;62776;50.518;6.732;2023-05-23T03:21:18;96746.16;;;13.86;100.00
74346;BME280;62776;50.518;6.732;2023-05-23T03:24:04;96748.00;;;13.81;100.00
74346;BME280;62776;50.518;6.732;2023-05-23T03:26:53;96754.06;;;13.82;100.00
74346;BME280;62776;50.518;6.732;2023-05-23T03:29:48;96753.28;;;13.78;100.00
74346;BME280;62776;50.518;6.732;2023-05-23T03:32:38;96754.38;;;13.67;100.00
74346;BME280;62776;50.518;6.732;2023-05-23T03:35:25;96759.75;;;13.59;100.00
74346;BME280;62776;50.518;6.732;2023-05-23T03:38:14;96759.03;;;13.51;100.00
74346;BME280;62776;50.518;6.732;2023-05-23T03:41:01;96758.19;;;13.49;100.00
74346;BME280;62776;50.518;6.732;2023-05-23T03:43:48;96763.44;;;13.47;100.00
74346;BME280;62776;50.518;6.732;2023-05-23T03:46:36;96761.75;;;13.43;100.00
74346;BME280;62776;50.518;6.732;2023-05-23T03:49:26;96772.34;;;13.37;100.00
74346;BME280;62776;50.518;6.732;2023-05-23T03:52:14;96768.78;;;13.41;100.00
74346;BME280;62776;50.518;6.732;2023-05-23T03:55:00;96773.97;;;13.43;100.00
74346;BME280;62776;50.518;6.732;2023-05-23T03:57:56;96768.09;;;13.32;100.00
74346;BME280;62776;50.518;6.732;2023-05-23T04:00:42;96769.00;;;13.29;100.00
74346;BME280;62776;50.518;6.732;2023-05-23T04:03:35;96770.75;;;13.29;100.00
74346;BME280;62776;50.518;6.732;2023-05-23T04:06:27;96770.84;;;13.21;100.00
74346;BME280;62776;50.518;6.732;2023-05-23T04:09:18;96771.81;;;13.17;100.00
74346;BME280;62776;50.518;6.732;2023-05-23T04:12:06;96765.78;;;13.14;100.00
74346;BME280;62776;50.518;6.732;2023-05-23T04:15:03;96770.13;;;13.13;100.00
74346;BME280;62776;50.518;6.732;2023-05-23T04:17:50;96769.34;;;13.07;100.00
74346;BME280;62776;50.518;6.732;2023-05-23T04:20:37;96766.00;;;12.98;100.00
74346;BME280;62776;50.518;6.732;2023-05-23T04:23:23;96782.59;;;12.94;100.00
74346;BME280;62776;50.518;6.732;2023-05-23T04:26:10;96770.50;;;12.89;100.00
74346;BME280;62776;50.518;6.732;2023-05-23T04:28:59;96780.19;;;12.81;100.00
74346;BME280;62776;50.518;6.732;2023-05-23T04:31:48;96788.97;;;12.75;100.00
74346;BME280;62776;50.518;6.732;2023-05-23T04:34:34;96785.50;;;12.75;100.00
74346;BME280;62776;50.518;6.732;2023-05-23T04:37:20;96785.50;;;12.76;100.00
74346;BME280;62776;50.518;6.732;2023-05-23T04:40:12;96789.06;;;12.71;100.00
74346;BME280;62776;50.518;6.732;2023-05-23T04:43:00;96793.41;;;12.70;100.00
74346;BME280;62776;50.518;6.732;2023-05-23T04:45:47;96798.72;;;12.64;100.00
74346;BME280;62776;50.518;6.732;2023-05-23T04:48:35;96799.59;;;12.63;100.00
74346;BME280;62776;50.518;6.732;2023-05-23T04:51:23;96797.03;;;12.60;100.00
74346;BME280;62776;50.518;6.732;2023-05-23T04:54:12;96804.00;;;12.58;100.00
74346;BME280;62776;50.518;6.732;2023-05-23T04:56:59;96801.50;;;12.51;100.00
74346;BME280;62776;50.518;6.732;2023-05-23T04:59:46;96805.94;;;12.46;100.00
74346;BME280;62776;50.518;6.732;2023-05-23T05:02:33;96807.66;;;12.47;100.00
74346;BME280;62776;50.518;6.732;2023-05-23T05:05:20;96810.34;;;12.40;100.00
74346;BME280;62776;50.518;6.732;2023-05-23T05:08:06;96812.97;;;12.40;100.00
74346;BME280;62776;50.518;6.732;2023-05-23T05:11:01;96810.38;;;12.37;100.00
74346;BME280;62776;50.518;6.732;2023-05-23T05:13:57;96813.81;;;12.39;100.00
74346;BME280;62776;50.518;6.732;2023-05-23T05:16:43;96818.25;;;12.36;100.00
74346;BME280;62776;50.518;6.732;2023-05-23T05:19:31;96813.88;;;12.36;100.00
74346;BME280;62776;50.518;6.732;2023-05-23T05:22:19;96809.53;;;12.38;100.00
74346;BME280;62776;50.518;6.732;2023-05-23T05:25:08;96805.09;;;12.43;100.00
74346;BME280;62776;50.518;6.732;2023-05-23T05:27:56;96808.53;;;12.46;100.00
74346;BME280;62776;50.518;6.732;2023-05-23T05:30:43;96806.75;;;12.48;100.00
74346;BME280;62776;50.518;6.732;2023-05-23T05:33:34;96807.66;;;12.47;100.00
74346;BME280;62776;50.518;6.732;2023-05-23T05:36:22;96806.75;;;12.48;100.00
74346;BME280;62776;50.518;6.732;2023-05-23T05:39:08;96810.16;;;12.53;100.00
74346;BME280;62776;50.518;6.732;2023-05-23T05:41:54;96825.06;;;12.44;100.00
74346;BME280;62776;50.518;6.732;2023-05-23T05:44:41;96826.75;;;12.47;100.00
74346;BME280;62776;50.518;6.732;2023-05-23T05:47:29;96825.91;;;12.47;100.00
74346;BME280;62776;50.518;6.732;2023-05-23T05:50:16;96822.34;;;12.54;100.00
74346;BME280;62776;50.518;6.732;2023-05-23T05:53:05;96827.53;;;12.54;100.00
74346;BME280;62776;50.518;6.732;2023-05-23T05:55:53;96828.34;;;12.59;100.00
74346;BME280;62776;50.518;6.732;2023-05-23T05:58:47;96819.59;;;12.63;100.00
74346;BME280;62776;50.518;6.732;2023-05-23T06:01:34;96822.19;;;12.66;100.00
74346;BME280;62776;50.518;6.732;2023-05-23T06:04:21;96823.91;;;12.64;100.00
74346;BME280;62776;50.518;6.732;2023-05-23T06:07:13;96832.59;;;12.66;100.00
74346;BME280;62776;50.518;6.732;2023-05-23T06:10:01;96833.50;;;12.62;100.00
74346;BME280;62776;50.518;6.732;2023-05-23T06:12:47;96837.88;;;12.63;100.00
74346;BME280;62776;50.518;6.732;2023-05-23T06:15:35;96833.41;;;12.69;100.00
74346;BME280;62776;50.518;6.732;2023-05-23T06:18:28;96832.50;;;12.72;100.00
74346;BME280;62776;50.518;6.732;2023-05-23T06:21:16;96841.22;;;12.69;100.00
74346;BME280;62776;50.518;6.732;2023-05-23T06:24:05;96842.06;;;12.73;100.00
74346;BME280;62776;50.518;6.732;2023-05-23T06:26:51;96838.53;;;12.75;100.00
74346;BME280;62776;50.518;6.732;2023-05-23T06:29:38;96842.88;;;12.75;100.00
74346;BME280;62776;50.518;6.732;2023-05-23T06:32:27;96833.28;;;12.80;100.00
74346;BME280;62776;50.518;6.732;2023-05-23T06:35:13;96837.63;;;12.78;100.00
74346;BME280;62776;50.518;6.732;2023-05-23T06:38:01;96843.75;;;12.77;100.00
74346;BME280;62776;50.518;6.732;2023-05-23T06:40:49;96840.22;;;12.79;100.00
74346;BME280;62776;50.518;6.732;2023-05-23T06:43:36;96847.16;;;12.82;100.00
74346;BME280;62776;50.518;6.732;2023-05-23T06:46:25;96848.03;;;12.81;100.00
74346;BME280;62776;50.518;6.732;2023-05-23T06:49:21;96847.16;;;12.82;100.00
74346;BME280;62776;50.518;6.732;2023-05-23T06:52:07;96855.00;;;12.79;100.00
74346;BME280;62776;50.518;6.732;2023-05-23T06:54:54;96853.25;;;12.82;100.00
74346;BME280;62776;50.518;6.732;2023-05-23T06:57:42;96857.53;;;12.83;100.00
74346;BME280;62776;50.518;6.732;2023-05-23T07:00:34;96855.81;;;12.84;100.00
74346;BME280;62776;50.518;6.732;2023-05-23T07:03:20;96854.97;;;12.82;100.00
74346;BME280;62776;50.518;6.732;2023-05-23T07:06:07;96855.00;;;12.79;100.00
74346;BME280;62776;50.518;6.732;2023-05-23T07:08:54;96860.28;;;12.76;100.00
74346;BME280;62776;50.518;6.732;2023-05-23T07:11:42;96865.53;;;12.73;100.00
74346;BME280;62776;50.518;6.732;2023-05-23T07:14:28;96866.41;;;12.73;100.00
74346;BME280;62776;50.518;6.732;2023-05-23T07:17:14;96859.41;;;12.77;100.00
74346;BME280;62776;50.518;6.732;2023-05-23T07:20:02;96860.31;;;12.74;100.00
74346;BME280;62776;50.518;6.732;2023-05-23T07:22:49;96864.59;;;12.78;100.00
74346;BME280;62776;50.518;6.732;2023-05-23T07:25:37;96864.50;;;12.83;100.00
74346;BME280;62776;50.518;6.732;2023-05-23T07:28:25;96867.13;;;12.83;100.00
74346;BME280;62776;50.518;6.732;2023-05-23T07:31:13;96869.66;;;12.89;100.00
74346;BME280;62776;50.518;6.732;2023-05-23T07:33:59;96868.78;;;12.90;100.00
74346;BME280;62776;50.518;6.732;2023-05-23T07:36:46;96870.50;;;12.91;100.00
74346;BME280;62776;50.518;6.732;2023-05-23T07:39:32;96864.31;;;12.96;100.00
74346;BME280;62776;50.518;6.732;2023-05-23T07:42:21;96872.16;;;12.95;100.00
74346;BME280;62776;50.518;6.732;2023-05-23T07:45:09;96867.03;;;12.89;100.00
74346;BME280;62776;50.518;6.732;2023-05-23T07:47:58;96878.28;;;12.92;100.00
74346;BME280;62776;50.518;6.732;2023-05-23T07:50:45;96878.25;;;12.94;100.00
74346;BME280;62776;50.518;6.732;2023-05-23T07:53:33;96878.34;;;12.91;100.00
74346;BME280;62776;50.518;6.732;2023-05-23T07:56:22;96890.41;;;12.98;100.00
74346;BME280;62776;50.518;6.732;2023-05-23T07:59:09;96886.09;;;12.95;100.00
74346;BME280;62776;50.518;6.732;2023-05-23T08:02:00;96891.31;;;12.94;100.00
74346;BME280;62776;50.518;6.732;2023-05-23T08:04:47;96887.91;;;12.89;100.00
74346;BME280;62776;50.518;6.732;2023-05-23T08:07:34;96897.44;;;12.93;100.00
74346;BME280;62776;50.518;6.732;2023-05-23T08:10:20;96891.41;;;12.88;100.00
74346;BME280;62776;50.518;6.732;2023-05-23T08:13:09;96896.69;;;12.85;100.00
74346;BME280;62776;50.518;6.732;2023-05-23T08:15:58;96897.53;;;12.85;100.00
74346;BME280;62776;50.518;6.732;2023-05-23T08:18:47;96901.84;;;12.88;100.00
74346;BME280;62776;50.518;6.732;2023-05-23T08:21:35;96907.06;;;12.88;100.00
74346;BME280;62776;50.518;6.732;2023-05-23T08:24:22;96902.75;;;12.84;100.00
74346;BME280;62776;50.518;6.732;2023-05-23T08:27:09;96907.97;;;12.84;100.00
74346;BME280;62776;50.518;6.732;2023-05-23T08:30:04;96903.00;;;12.69;100.00
74346;BME280;62776;50.518;6.732;2023-05-23T08:32:53;96922.97;;;12.67;100.00
74346;BME280;62776;50.518;6.732;2023-05-23T08:35:40;96918.56;;;12.72;100.00
74346;BME280;62776;50.518;6.732;2023-05-23T08:38:27;96906.44;;;12.71;100.00
74346;BME280;62776;50.518;6.732;2023-05-23T08:41:24;96917.91;;;12.58;100.00
74346;BME280;62776;50.518;6.732;2023-05-23T08:44:13;96925.59;;;12.67;100.00
74346;BME280;62776;50.518;6.732;2023-05-23T08:47:03;96918.72;;;12.63;100.00
74346;BME280;62776;50.518;6.732;2023-05-23T08:49:53;96932.47;;;12.74;100.00
74346;BME280;62776;50.518;6.732;2023-05-23T08:52:56;96920.25;;;12.76;100.00
74346;BME280;62776;50.518;6.732;2023-05-23T08:55:45;96925.31;;;12.89;100.00
74346;BME280;62776;50.518;6.732;2023-05-23T08:58:35;96918.16;;;13.02;100.00
74346;BME280;62776;50.518;6.732;2023-05-23T09:01:28;96925.91;;;13.11;100.00
74346;BME280;62776;50.518;6.732;2023-05-23T09:04:16;96930.16;;;13.18;100.00
74346;BME280;62776;50.518;6.732;2023-05-23T09:07:06;96926.56;;;13.25;100.00
74346;BME280;62776;50.518;6.732;2023-05-23T09:09:58;96928.25;;;13.29;100.00
74346;BME280;62776;50.518;6.732;2023-05-23T09:12:46;96937.88;;;13.26;100.00
74346;BME280;62776;50.518;6.732;2023-05-23T09:15:32;96937.78;;;13.30;100.00
74346;BME280;62776;50.518;6.732;2023-05-23T09:18:27;96926.59;;;13.24;100.00
74346;BME280;62776;50.518;6.732;2023-05-23T09:21:19;96933.53;;;13.26;100.00
74346;BME280;62776;50.518;6.732;2023-05-23T09:24:06;96943.09;;;13.24;100.00
74346;BME280;62776;50.518;6.732;2023-05-23T09:26:58;96944.13;;;13.16;100.00
74346;BME280;62776;50.518;6.732;2023-05-23T09:29:45;96939.84;;;13.10;100.00
74346;BME280;62776;50.518;6.732;2023-05-23T09:32:34;96940.72;;;13.08;100.00
74346;BME280;62776;50.518;6.732;2023-05-23T09:35:22;96953.78;;;13.09;100.00
74346;BME280;62776;50.518;6.732;2023-05-23T09:38:08;96942.59;;;12.98;100.00
74346;BME280;62776;50.518;6.732;2023-05-23T09:40:58;96956.59;;;12.91;100.00
74346;BME280;62776;50.518;6.732;2023-05-23T09:43:52;96949.63;;;12.91;100.00
74346;BME280;62776;50.518;6.732;2023-05-23T09:46:39;96939.78;;;13.13;100.00
74346;BME280;62776;50.518;6.732;2023-05-23T09:49:32;96945.94;;;13.09;100.00
74346;BME280;62776;50.518;6.732;2023-05-23T09:52:20;96943.34;;;13.09;100.00
74346;BME280;62776;50.518;6.732;2023-05-23T09:55:09;96948.50;;;13.12;100.00
74346;BME280;62776;50.518;6.732;2023-05-23T09:58:01;96956.03;;;12.66;100.00
74346;BME280;62776;50.518;6.732;2023-05-23T10:00:52;96949.66;;;12.88;100.00
74346;BME280;62776;50.518;6.732;2023-05-23T10:03:51;96955.00;;;12.79;100.00
74346;BME280;62776;50.518;6.732;2023-05-23T10:06:50;96955.94;;;12.74;100.00
74346;BME280;62776;50.518;6.732;2023-05-23T10:09:44;96958.66;;;12.65;100.00
74346;BME280;62776;50.518;6.732;2023-05-23T10:12:46;96971.84;;;12.53;100.00
74346;BME280;62776;50.518;6.732;2023-05-23T10:15:37;96970.06;;;12.58;100.00
74346;BME280;62776;50.518;6.732;2023-05-23T10:18:28;96965.66;;;12.61;100.00
74346;BME280;62776;50.518;6.732;2023-05-23T10:21:24;96964.88;;;12.55;100.00
74346;BME280;62776;50.518;6.732;2023-05-23T10:24:18;96980.59;;;12.49;100.00
74346;BME280;62776;50.518;6.732;2023-05-23T10:27:06;96978.91;;;12.41;100.00
74346;BME280;62776;50.518;6.732;2023-05-23T10:29:53;96978.19;;;12.29;100.00
74346;BME280;62776;50.518;6.732;2023-05-23T10:32:42;96979.19;;;12.14;100.00
74346;BME280;62776;50.518;6.732;2023-05-23T10:35:53;96991.44;;;12.06;100.00
74346;BME280;62776;50.518;6.732;2023-05-23T10:41:47;96994.94;;;12.01;100.00
74346;BME280;62776;50.518;6.732;2023-05-23T10:44:36;96994.97;;;12.02;100.00
74346;BME280;62776;50.518;6.732;2023-05-23T10:47:27;96995.91;;;11.94;100.00
74346;BME280;62776;50.518;6.732;2023-05-23T10:50:30;96992.50;;;11.82;100.00
74346;BME280;62776;50.518;6.732;2023-05-23T10:53:22;96998.50;;;11.92;100.00
74346;BME280;62776;50.518;6.732;2023-05-23T10:56:20;96987.22;;;11.90;100.00
74346;BME280;62776;50.518;6.732;2023-05-23T10:59:19;96997.72;;;11.86;100.00
74346;BME280;62776;50.518;6.732;2023-05-23T11:02:14;97001.94;;;11.96;100.00
74346;BME280;62776;50.518;6.732;2023-05-23T11:05:20;97000.22;;;11.96;100.00
74346;BME280;62776;50.518;6.732;2023-05-23T11:08:13;97003.50;;;12.19;100.00
74346;BME280;62776;50.518;6.732;2023-05-23T11:11:01;97014.84;;;12.12;100.00
74346;BME280;62776;50.518;6.732;2023-05-23T11:13:54;97008.72;;;12.15;100.00
74346;BME280;62776;50.518;6.732;2023-05-23T11:16:42;97017.34;;;12.23;100.00
74346;BME280;62776;50.518;6.732;2023-05-23T11:19:31;97017.22;;;12.33;100.00
74346;BME280;62776;50.518;6.732;2023-05-23T11:22:18;97016.22;;;12.50;100.00
74346;BME280;62776;50.518;6.732;2023-05-23T11:25:11;97016.13;;;12.57;100.00
74346;BME280;62776;50.518;6.732;2023-05-23T11:28:03;97010.69;;;12.77;100.00
74346;BME280;62776;50.518;6.732;2023-05-23T11:30:51;97005.22;;;12.98;100.00
74346;BME280;62776;50.518;6.732;2023-05-23T11:33:37;96998.78;;;13.26;100.00
74346;BME280;62776;50.518;6.732;2023-05-23T11:36:24;97005.47;;;13.45;100.00
74346;BME280;62776;50.518;6.732;2023-05-23T11:39:13;96999.44;;;13.42;100.00
74346;BME280;62776;50.518;6.732;2023-05-23T11:42:02;96998.63;;;13.35;100.00
74346;BME280;62776;50.518;6.732;2023-05-23T11:45:01;97010.84;;;13.33;100.00
74346;BME280;62776;50.518;6.732;2023-05-23T11:47:48;97002.06;;;13.40;100.00
74346;BME280;62776;50.518;6.732;2023-05-23T11:50:46;96998.56;;;13.41;100.00
74346;BME280;62776;50.518;6.732;2023-05-23T11:53:34;97006.06;;;13.63;100.00
74346;BME280;62776;50.518;6.732;2023-05-23T11:56:20;96999.72;;;13.80;100.00
74346;BME280;62776;50.518;6.732;2023-05-23T11:59:14;97017.13;;;13.80;100.00
74346;BME280;62776;50.518;6.732;2023-05-23T12:02:02;97006.88;;;13.68;100.00
74346;BME280;62776;50.518;6.732;2023-05-23T12:04:54;97006.63;;;13.26;100.00
74346;BME280;62776;50.518;6.732;2023-05-23T12:07:41;97010.41;;;13.64;100.00
74346;BME280;62776;50.518;6.732;2023-05-23T12:10:28;97008.69;;;13.63;100.00
74346;BME280;62776;50.518;6.732;2023-05-23T12:13:17;97010.13;;;13.82;100.00
74346;BME280;62776;50.518;6.732;2023-05-23T12:16:03;97006.19;;;14.10;100.00
74346;BME280;62776;50.518;6.732;2023-05-23T12:18:49;97002.91;;;14.49;100.00
74346;BME280;62776;50.518;6.732;2023-05-23T12:21:43;97005.94;;;14.72;100.00
74346;BME280;62776;50.518;6.732;2023-05-23T12:24:29;96997.75;;;14.91;100.00
74346;BME280;62776;50.518;6.732;2023-05-23T12:27:16;97004.63;;;14.95;100.00
74346;BME280;62776;50.518;6.732;2023-05-23T12:30:27;97001.00;;;15.02;100.00
74346;BME280;62776;50.518;6.732;2023-05-23T12:33:21;97005.13;;;15.13;100.00
74346;BME280;62776;50.518;6.732;2023-05-23T12:36:08;97002.69;;;15.03;100.00
74346;BME280;62776;50.518;6.732;2023-05-23T12:39:01;97002.69;;;14.60;100.00
74346;BME280;62776;50.518;6.732;2023-05-23T12:41:50;97007.63;;;14.75;100.00
74346;BME280;62776;50.518;6.732;2023-05-23T12:44:40;97007.88;;;14.63;100.00
74346;BME280;62776;50.518;6.732;2023-05-23T12:47:26;97007.00;;;14.62;100.00
74346;BME280;62776;50.518;6.732;2023-05-23T12:50:26;97018.50;;;14.55;100.00
74346;BME280;62776;50.518;6.732;2023-05-23T12:53:13;97011.56;;;14.53;100.00
74346;BME280;62776;50.518;6.732;2023-05-23T12:55:59;97021.31;;;14.45;100.00
74346;BME280;62776;50.518;6.732;2023-05-23T12:58:46;97020.66;;;14.32;100.00
74346;BME280;62776;50.518;6.732;2023-05-23T13:01:33;97023.50;;;14.15;100.00
74346;BME280;62776;50.518;6.732;2023-05-23T13:04:20;97021.13;;;14.02;100.00
74346;BME280;62776;50.518;6.732;2023-05-23T13:07:10;97032.63;;;13.92;100.00
74346;BME280;62776;50.518;6.732;2023-05-23T13:09:57;97034.47;;;13.87;100.00
74346;BME280;62776;50.518;6.732;2023-05-23T13:12:43;97025.94;;;13.74;100.00
74346;BME280;62776;50.518;6.732;2023-05-23T13:15:29;97036.47;;;13.70;100.00
74346;BME280;62776;50.518;6.732;2023-05-23T13:18:16;97030.41;;;13.68;100.00
74346;BME280;62776;50.518;6.732;2023-05-23T13:21:03;97031.22;;;13.68;100.00
74346;BME280;62776;50.518;6.732;2023-05-23T13:23:51;97028.50;;;13.79;100.00
74346;BME280;62776;50.518;6.732;2023-05-23T13:26:40;97030.81;;;13.97;100.00
74346;BME280;62776;50.518;6.732;2023-05-23T13:29:28;97040.25;;;14.05;100.00
74346;BME280;62776;50.518;6.732;2023-05-23T13:32:14;97037.50;;;14.14;100.00
74346;BME280;62776;50.518;6.732;2023-05-23T13:35:02;97038.31;;;14.16;100.00
74346;BME280;62776;50.518;6.732;2023-05-23T13:37:56;97040.03;;;14.17;100.00
74346;BME280;62776;50.518;6.732;2023-05-23T13:40:45;97037.41;;;14.17;100.00
74346;BME280;62776;50.518;6.732;2023-05-23T13:43:31;97033.09;;;14.16;100.00
74346;BME280;62776;50.518;6.732;2023-05-23T13:46:18;97038.28;;;14.19;100.00
74346;BME280;62776;50.518;6.732;2023-05-23T13:49:07;97030.44;;;14.18;100.00
74346;BME280;62776;50.518;6.732;2023-05-23T13:51:57;97026.28;;;14.08;100.00
74346;BME280;62776;50.518;6.732;2023-05-23T13:54:43;97035.03;;;14.05;100.00
74346;BME280;62776;50.518;6.732;2023-05-23T13:57:30;97036.69;;;14.11;100.00
74346;BME280;62776;50.518;6.732;2023-05-23T14:00:16;97034.88;;;14.14;100.00
74346;BME280;62776;50.518;6.732;2023-05-23T14:03:04;97032.03;;;14.27;100.00
74346;BME280;62776;50.518;6.732;2023-05-23T14:05:50;97029.94;;;14.48;100.00
74346;BME280;62776;50.518;6.732;2023-05-23T14:08:36;97023.66;;;15.03;100.00
74346;BME280;62776;50.518;6.732;2023-05-23T14:11:23;97021.38;;;16.06;100.00
74346;BME280;62776;50.518;6.732;2023-05-23T14:14:11;97026.16;;;15.52;100.00
74346;BME280;62776;50.518;6.732;2023-05-23T14:16:57;97023.22;;;15.24;100.00
74346;BME280;62776;50.518;6.732;2023-05-23T14:19:45;97022.59;;;15.13;100.00
74346;BME280;62776;50.518;6.732;2023-05-23T14:22:38;97028.94;;;15.00;100.00
74346;BME280;62776;50.518;6.732;2023-05-23T14:25:27;97021.88;;;15.05;100.00
74346;BME280;62776;50.518;6.732;2023-05-23T14:28:13;97023.00;;;16.10;100.00
74346;BME280;62776;50.518;6.732;2023-05-23T14:31:06;97007.13;;;17.73;93.70
74346;BME280;62776;50.518;6.732;2023-05-23T14:33:54;97016.41;;;17.26;85.51
74346;BME280;62776;50.518;6.732;2023-05-23T14:36:42;97013.75;;;17.27;89.51
74346;BME280;62776;50.518;6.732;2023-05-23T14:39:28;97017.78;;;16.77;86.95
74346;BME280;62776;50.518;6.732;2023-05-23T14:42:14;97007.44;;;16.04;87.30
74346;BME280;62776;50.518;6.732;2023-05-23T14:45:07;97012.94;;;15.55;91.32
74346;BME280;62776;50.518;6.732;2023-05-23T14:47:53;97024.22;;;15.97;92.08
74346;BME280;62776;50.518;6.732;2023-05-23T14:50:41;97015.00;;;16.16;93.49